createdAt,value
2018-03-28T00:00:27.165Z,3.69
2018-03-28T00:02:54.798Z,3.76
2018-03-28T00:05:22.368Z,3.72
2018-03-28T00:07:50.007Z,3.73
2018-03-28T00:10:17.574Z,3.74
2018-03-28T00:12:45.190Z,3.71
2018-03-28T00:15:12.757Z,3.70
2018-03-28T00:17:40.328Z,3.61
2018-03-28T00:20:07.895Z,3.54
2018-03-28T00:22:35.453Z,3.48
2018-03-28T00:25:03.128Z,3.46
2018-03-28T00:27:30.691Z,3.44
2018-03-28T00:29:58.306Z,3.41
2018-03-28T00:32:25.866Z,3.34
2018-03-28T00:34:53.486Z,3.28
2018-03-28T00:37:21.057Z,3.27
2018-03-28T00:39:48.622Z,3.25
2018-03-28T00:42:16.234Z,3.27
2018-03-28T00:44:43.790Z,3.33
2018-03-28T00:47:11.419Z,3.35
2018-03-28T00:49:39.047Z,3.39
2018-03-28T00:52:06.607Z,3.46
2018-03-28T00:54:34.182Z,3.51
2018-03-28T00:57:01.747Z,3.59
2018-03-28T00:59:29.309Z,3.64
2018-03-28T01:01:56.886Z,3.74
2018-03-28T01:04:24.506Z,3.85
2018-03-28T01:06:52.067Z,3.98
2018-03-28T01:09:19.637Z,4.06
2018-03-28T01:11:47.274Z,4.15
2018-03-28T01:14:14.860Z,4.28
2018-03-28T01:16:42.434Z,4.42
2018-03-28T01:19:09.998Z,4.53
2018-03-28T01:21:37.615Z,4.64
2018-03-28T01:24:05.180Z,4.64
2018-03-28T01:26:32.817Z,4.70
2018-03-28T01:29:00.455Z,4.75
2018-03-28T01:31:28.075Z,4.79
2018-03-28T01:33:55.706Z,4.81
2018-03-28T01:36:23.318Z,4.86
2018-03-28T01:38:50.941Z,4.89
2018-03-28T01:41:18.507Z,4.88
2018-03-28T01:43:46.069Z,4.89
2018-03-28T01:46:13.634Z,4.84
2018-03-28T01:48:41.205Z,4.83
2018-03-28T01:51:08.894Z,4.76
2018-03-28T01:53:36.520Z,4.68
2018-03-28T01:56:04.087Z,4.65
2018-03-28T01:58:31.714Z,4.62
2018-03-28T02:00:59.336Z,4.65
2018-03-28T02:03:26.905Z,4.69
2018-03-28T02:05:54.462Z,4.71
2018-03-28T02:08:22.143Z,4.66
2018-03-28T02:10:49.709Z,4.69
2018-03-28T02:13:17.274Z,4.66
2018-03-28T02:15:44.902Z,4.61
2018-03-28T02:18:12.467Z,4.58
2018-03-28T02:20:40.092Z,4.48
2018-03-28T02:23:07.722Z,4.47
2018-03-28T02:25:35.341Z,4.39
2018-03-28T02:28:02.907Z,4.45
2018-03-28T02:30:30.532Z,4.46
2018-03-28T02:32:58.105Z,4.56
2018-03-28T02:35:25.738Z,4.72
2018-03-28T02:37:53.314Z,4.78
2018-03-28T02:40:20.942Z,4.89
2018-03-28T02:42:48.598Z,4.98
2018-03-28T02:45:16.204Z,5.03
2018-03-28T02:47:43.781Z,5.12
2018-03-28T02:50:11.447Z,5.16
2018-03-28T02:52:39.019Z,5.15
2018-03-28T02:55:06.598Z,5.12
2018-03-28T02:57:34.157Z,5.09
2018-03-28T03:00:01.768Z,5.11
2018-03-28T03:02:29.403Z,5.07
2018-03-28T03:04:56.970Z,4.98
2018-03-28T03:07:24.555Z,4.81
2018-03-28T03:09:52.122Z,4.67
2018-03-28T03:12:19.703Z,4.60
2018-03-28T03:14:47.320Z,4.50
2018-03-28T03:17:15.025Z,4.35
2018-03-28T03:19:42.583Z,4.21
2018-03-28T03:22:10.148Z,4.07
2018-03-28T03:24:37.790Z,3.93
2018-03-28T03:27:05.353Z,3.91
2018-03-28T03:29:32.941Z,3.88
2018-03-28T03:32:00.508Z,3.84
2018-03-28T03:34:28.188Z,3.86
2018-03-28T03:36:55.871Z,3.86
2018-03-28T03:39:23.506Z,3.86
2018-03-28T03:41:51.082Z,3.85
2018-03-28T03:44:18.656Z,3.79
2018-03-28T03:46:46.287Z,3.81
2018-03-28T03:49:13.851Z,3.80
2018-03-28T03:51:41.470Z,3.81
2018-03-28T03:54:09.030Z,3.87
2018-03-28T03:56:36.651Z,3.93
2018-03-28T03:59:04.222Z,4.05
2018-03-28T04:01:31.852Z,4.16
2018-03-28T04:03:59.504Z,4.27
2018-03-28T04:06:27.071Z,4.39
2018-03-28T04:08:54.682Z,4.50
2018-03-28T04:11:22.239Z,4.60
2018-03-28T04:13:49.797Z,4.64
2018-03-28T04:16:18.313Z,4.63
2018-03-28T04:18:45.938Z,4.56
2018-03-28T04:21:13.508Z,4.55
2018-03-28T04:23:41.081Z,4.52
2018-03-28T04:26:08.771Z,4.58
2018-03-28T04:28:36.397Z,4.60
2018-03-28T04:31:04.010Z,4.64
2018-03-28T04:33:31.590Z,4.69
2018-03-28T04:35:59.165Z,4.67
2018-03-28T04:38:26.800Z,4.62
2018-03-28T04:40:54.432Z,4.73
2018-03-28T04:43:22.055Z,4.86
2018-03-28T04:45:49.613Z,4.95
2018-03-28T04:48:17.170Z,4.96
2018-03-28T04:50:44.745Z,4.93
2018-03-28T04:53:12.314Z,4.82
2018-03-28T04:55:39.995Z,4.65
2018-03-28T04:58:07.638Z,4.46
2018-03-28T05:00:35.258Z,4.32
2018-03-28T05:03:02.893Z,4.25
2018-03-28T05:05:30.460Z,4.25
2018-03-28T05:07:58.030Z,4.17
2018-03-28T05:10:25.595Z,4.14
2018-03-28T05:12:53.231Z,4.11
2018-03-28T05:15:20.864Z,4.11
2018-03-28T05:17:48.544Z,4.07
2018-03-28T05:20:16.166Z,4.09
2018-03-28T05:22:43.775Z,4.00
2018-03-28T05:25:11.334Z,4.05
2018-03-28T05:27:38.959Z,4.03
2018-03-28T05:30:06.646Z,4.10
2018-03-28T05:32:34.210Z,4.13
2018-03-28T05:35:01.888Z,4.20
2018-03-28T05:37:29.465Z,4.33
2018-03-28T05:39:57.071Z,4.47
2018-03-28T05:42:24.756Z,4.61
2018-03-28T05:44:52.323Z,4.65
2018-03-28T05:47:19.946Z,4.76
2018-03-28T05:49:47.522Z,4.88
2018-03-28T05:52:15.147Z,5.00
2018-03-28T05:54:42.736Z,5.14
2018-03-28T05:57:11.161Z,5.26
2018-03-28T05:59:38.752Z,5.38
2018-03-28T06:02:06.391Z,5.50
2018-03-28T06:04:33.956Z,5.61
2018-03-28T06:07:01.591Z,5.69
2018-03-28T06:09:29.171Z,5.78
2018-03-28T06:11:56.806Z,5.80
2018-03-28T06:14:24.369Z,5.93
2018-03-28T06:16:51.993Z,6.08
2018-03-28T06:19:19.634Z,6.23
2018-03-28T06:21:47.213Z,6.32
2018-03-28T06:24:14.856Z,6.48
2018-03-28T06:26:42.427Z,6.65
2018-03-28T06:29:10.006Z,6.68
2018-03-28T06:31:37.571Z,6.73
2018-03-28T06:34:05.250Z,6.78
2018-03-28T06:36:32.809Z,6.89
2018-03-28T06:39:00.370Z,6.99
2018-03-28T06:41:28.005Z,7.00
2018-03-28T06:43:55.606Z,7.02
2018-03-28T06:46:23.175Z,7.01
2018-03-28T06:48:50.805Z,7.04
2018-03-28T06:51:18.484Z,7.09
2018-03-28T06:53:46.049Z,7.18
2018-03-28T06:56:13.620Z,7.31
2018-03-28T06:58:41.245Z,7.40
2018-03-28T07:01:08.810Z,7.56
2018-03-28T07:03:36.385Z,7.64
2018-03-28T07:06:03.962Z,7.84
2018-03-28T07:08:31.586Z,7.96
2018-03-28T07:10:59.160Z,7.91
2018-03-28T07:13:26.789Z,7.95
2018-03-28T07:15:54.424Z,8.01
2018-03-28T07:18:22.052Z,7.91
2018-03-28T07:20:49.743Z,7.94
2018-03-28T07:23:17.366Z,7.94
2018-03-28T07:25:44.931Z,7.97
2018-03-28T07:28:12.511Z,7.83
2018-03-28T07:30:40.084Z,7.84
2018-03-28T07:33:07.771Z,7.84
2018-03-28T07:35:35.390Z,7.82
2018-03-28T07:38:02.954Z,7.84
2018-03-28T07:40:30.611Z,7.88
2018-03-28T07:42:58.246Z,8.03
2018-03-28T07:45:25.814Z,8.13
2018-03-28T07:47:53.374Z,8.47
2018-03-28T07:50:21.069Z,8.66
2018-03-28T07:52:48.626Z,8.86
2018-03-28T07:55:16.188Z,9.19
2018-03-28T07:57:43.766Z,9.29
2018-03-28T08:00:11.346Z,9.37
2018-03-28T08:02:38.982Z,9.53
2018-03-28T08:05:06.542Z,9.64
2018-03-28T08:07:34.172Z,9.73
2018-03-28T08:10:01.857Z,9.83
2018-03-28T08:12:29.479Z,9.96
2018-03-28T08:14:57.054Z,10.16
2018-03-28T08:17:24.696Z,10.38
2018-03-28T08:19:52.270Z,10.32
2018-03-28T08:22:19.895Z,10.32
2018-03-28T08:24:47.583Z,10.40
2018-03-28T08:27:15.212Z,10.50
2018-03-28T08:29:42.774Z,10.68
2018-03-28T08:32:10.414Z,10.62
2018-03-28T08:34:37.988Z,10.55
2018-03-28T08:37:05.574Z,10.56
2018-03-28T08:39:33.255Z,10.70
2018-03-28T08:42:00.946Z,10.80
2018-03-28T08:44:28.535Z,11.02
2018-03-28T08:46:56.163Z,10.96
2018-03-28T08:49:23.746Z,11.19
2018-03-28T08:51:51.370Z,11.29
2018-03-28T08:54:19.010Z,11.59
2018-03-28T08:56:46.578Z,11.38
2018-03-28T08:59:14.198Z,11.51
2018-03-28T09:01:41.770Z,11.69
2018-03-28T09:04:09.338Z,12.05
2018-03-28T09:06:36.975Z,12.17
2018-03-28T09:09:07.302Z,12.23
2018-03-28T09:11:34.904Z,12.21
2018-03-28T09:14:02.488Z,12.38
2018-03-28T09:16:30.114Z,12.50
2018-03-28T09:18:57.677Z,12.64
2018-03-28T09:21:25.303Z,12.29
2018-03-28T09:23:52.878Z,12.47
2018-03-28T09:26:20.510Z,12.38
2018-03-28T09:28:48.095Z,12.29
2018-03-28T09:31:15.673Z,12.27
2018-03-28T09:33:43.358Z,12.57
2018-03-28T09:36:10.923Z,12.53
2018-03-28T09:38:38.486Z,12.37
2018-03-28T09:41:06.130Z,12.51
2018-03-28T09:43:33.698Z,12.47
2018-03-28T09:46:01.277Z,12.39
2018-03-28T09:48:28.914Z,12.74
2018-03-28T09:50:56.586Z,12.95
2018-03-28T09:53:24.149Z,12.96
2018-03-28T09:55:51.778Z,12.96
2018-03-28T09:58:19.411Z,12.95
2018-03-28T10:00:47.082Z,12.91
2018-03-28T10:03:14.693Z,13.03
2018-03-28T10:05:42.287Z,12.75
2018-03-28T10:08:09.917Z,12.66
2018-03-28T10:10:37.478Z,12.77
2018-03-28T10:13:05.041Z,12.93
2018-03-28T10:15:32.675Z,12.85
2018-03-28T10:18:00.300Z,13.14
2018-03-28T10:20:27.850Z,13.62
2018-03-28T10:22:55.410Z,13.78
2018-03-28T10:25:23.074Z,14.28
2018-03-28T10:27:50.643Z,14.29
2018-03-28T10:30:18.216Z,14.11
2018-03-28T10:32:45.826Z,14.27
2018-03-28T10:35:13.554Z,14.36
2018-03-28T10:37:41.137Z,14.49
2018-03-28T10:40:08.702Z,14.63
2018-03-28T10:42:36.329Z,15.02
2018-03-28T10:45:03.996Z,15.14
2018-03-28T10:47:31.619Z,14.87
2018-03-28T10:49:59.194Z,14.85
2018-03-28T10:52:26.762Z,14.70
2018-03-28T10:54:54.339Z,14.59
2018-03-28T10:57:21.898Z,14.82
2018-03-28T10:59:49.595Z,14.63
2018-03-28T11:02:17.228Z,14.61
2018-03-28T11:04:44.794Z,14.56
2018-03-28T11:07:12.427Z,14.25
2018-03-28T11:09:39.998Z,14.09
2018-03-28T11:12:07.572Z,13.57
2018-03-28T11:14:35.200Z,13.51
2018-03-28T11:17:02.845Z,13.52
2018-03-28T11:19:30.430Z,13.54
2018-03-28T11:21:58.014Z,13.48
2018-03-28T11:24:25.651Z,13.54
2018-03-28T11:26:53.267Z,13.65
2018-03-28T11:29:20.904Z,13.90
2018-03-28T11:31:48.477Z,14.13
2018-03-28T11:34:16.158Z,14.24
2018-03-28T11:36:43.792Z,14.42
2018-03-28T11:39:11.421Z,14.55
2018-03-28T11:41:39.002Z,14.47
2018-03-28T11:44:06.569Z,14.34
2018-03-28T11:46:34.156Z,13.93
2018-03-28T11:49:01.812Z,13.83
2018-03-28T11:51:29.438Z,13.45
2018-03-28T11:53:57.075Z,13.26
2018-03-28T11:56:24.640Z,13.47
2018-03-28T11:58:52.275Z,13.46
2018-03-28T12:01:19.907Z,13.26
2018-03-28T12:03:47.584Z,13.37
2018-03-28T12:06:15.215Z,13.37
2018-03-28T12:08:42.782Z,13.51
2018-03-28T12:11:10.365Z,13.70
2018-03-28T12:13:37.940Z,13.63
2018-03-28T12:16:05.518Z,13.93
2018-03-28T12:18:33.143Z,14.25
2018-03-28T12:21:00.713Z,14.48
2018-03-28T12:23:28.352Z,14.55
2018-03-28T12:25:55.924Z,14.59
2018-03-28T12:28:27.439Z,14.50
2018-03-28T12:30:55.017Z,14.11
2018-03-28T12:33:22.597Z,14.39
2018-03-28T12:35:50.197Z,14.33
2018-03-28T12:38:17.827Z,14.12
2018-03-28T12:40:45.445Z,13.71
2018-03-28T12:43:13.070Z,13.53
2018-03-28T12:45:40.643Z,13.82
2018-03-28T12:48:08.277Z,14.46
2018-03-28T12:50:35.842Z,14.44
2018-03-28T12:53:03.495Z,14.51
2018-03-28T12:55:31.149Z,14.44
2018-03-28T12:57:58.739Z,14.21
2018-03-28T13:00:27.242Z,14.36
2018-03-28T13:02:54.816Z,14.27
2018-03-28T13:05:23.350Z,14.64
2018-03-28T13:07:50.946Z,14.84
2018-03-28T13:10:18.611Z,14.90
2018-03-28T13:12:46.243Z,14.46
2018-03-28T13:15:13.865Z,14.06
2018-03-28T13:17:41.518Z,13.80
2018-03-28T13:20:09.105Z,13.63
2018-03-28T13:22:37.242Z,13.68
2018-03-28T13:25:04.824Z,13.31
2018-03-28T13:27:32.445Z,13.05
2018-03-28T13:30:00.015Z,12.81
2018-03-28T13:32:27.581Z,12.71
2018-03-28T13:34:55.157Z,12.81
2018-03-28T13:37:22.788Z,12.77
2018-03-28T13:39:50.432Z,12.99
2018-03-28T13:42:17.998Z,13.35
2018-03-28T13:44:45.645Z,13.70
2018-03-28T13:47:13.284Z,14.00
2018-03-28T13:49:40.852Z,14.25
2018-03-28T13:52:08.550Z,14.24
2018-03-28T13:54:36.180Z,14.22
2018-03-28T13:57:03.813Z,14.15
2018-03-28T13:59:31.395Z,13.86
2018-03-28T14:01:58.967Z,13.68
2018-03-28T14:04:26.583Z,13.63
2018-03-28T14:06:54.208Z,13.64
2018-03-28T14:09:21.787Z,13.53
2018-03-28T14:11:49.427Z,13.29
2018-03-28T14:14:16.989Z,13.56
2018-03-28T14:16:44.567Z,13.37
2018-03-28T14:19:12.136Z,13.06
2018-03-28T14:21:39.881Z,13.03
2018-03-28T14:24:07.442Z,12.96
2018-03-28T14:26:35.030Z,12.93
2018-03-28T14:29:02.667Z,12.92
2018-03-28T14:31:30.235Z,12.85
2018-03-28T14:33:57.807Z,12.80
2018-03-28T14:36:25.446Z,12.67
2018-03-28T14:38:53.071Z,12.43
2018-03-28T14:41:20.709Z,12.43
2018-03-28T14:43:48.274Z,12.33
2018-03-28T14:46:15.915Z,12.32
2018-03-28T14:48:43.474Z,12.28
2018-03-28T14:51:11.046Z,12.18
2018-03-28T14:53:38.615Z,12.13
2018-03-28T14:56:06.298Z,12.00
2018-03-28T14:58:35.310Z,12.00
2018-03-28T15:01:02.898Z,11.81
2018-03-28T15:03:30.534Z,11.39
2018-03-28T15:05:58.098Z,11.30
2018-03-28T15:08:25.685Z,11.22
2018-03-28T15:10:53.275Z,11.13
2018-03-28T15:13:21.033Z,10.92
2018-03-28T15:15:48.602Z,10.88
2018-03-28T15:18:16.253Z,10.88
2018-03-28T15:20:43.838Z,10.87
2018-03-28T15:23:11.469Z,10.85
2018-03-28T15:25:39.051Z,10.86
2018-03-28T15:28:06.680Z,10.94
2018-03-28T15:30:34.385Z,11.08
2018-03-28T15:33:01.949Z,11.18
2018-03-28T15:35:29.522Z,11.18
2018-03-28T15:37:57.158Z,11.32
2018-03-28T15:40:24.727Z,11.38
2018-03-28T15:42:52.307Z,11.46
2018-03-28T15:45:19.878Z,11.47
2018-03-28T15:47:47.547Z,11.55
2018-03-28T15:50:15.180Z,11.51
2018-03-28T15:52:42.823Z,11.27
2018-03-28T15:55:10.547Z,11.25
2018-03-28T15:57:38.178Z,11.22
2018-03-28T16:00:05.759Z,11.09
2018-03-28T16:02:33.397Z,10.99
2018-03-28T16:05:01.086Z,10.85
2018-03-28T16:07:29.629Z,10.73
2018-03-28T16:09:57.730Z,10.61
2018-03-28T16:12:25.298Z,10.48
2018-03-28T16:14:52.862Z,10.33
2018-03-28T16:17:20.430Z,10.23
2018-03-28T16:19:47.994Z,10.10
2018-03-28T16:22:15.698Z,9.94
2018-03-28T16:24:43.343Z,9.78
2018-03-28T16:27:10.934Z,9.60
2018-03-28T16:29:38.567Z,9.44
2018-03-28T16:32:06.137Z,9.34
2018-03-28T16:34:39.144Z,9.16
2018-03-28T16:37:06.770Z,9.00
2018-03-28T16:39:34.498Z,8.87
2018-03-28T16:42:02.070Z,8.70
2018-03-28T16:44:29.713Z,8.55
2018-03-28T16:46:57.332Z,8.44
2018-03-28T16:49:24.911Z,8.35
2018-03-28T16:51:52.482Z,8.22
2018-03-28T16:54:20.131Z,8.11
2018-03-28T16:56:49.500Z,7.99
2018-03-28T16:59:17.100Z,7.92
2018-03-28T17:01:44.803Z,7.81
2018-03-28T17:04:12.382Z,7.78
2018-03-28T17:06:40.019Z,7.71
2018-03-28T17:09:07.596Z,7.63
2018-03-28T17:11:35.192Z,7.54
2018-03-28T17:14:02.886Z,7.44
2018-03-28T17:16:30.547Z,7.33
2018-03-28T17:18:58.132Z,7.29
2018-03-28T17:21:25.720Z,7.18
2018-03-28T17:23:53.290Z,7.07
2018-03-28T17:26:20.923Z,6.98
2018-03-28T17:28:48.566Z,6.91
2018-03-28T17:31:17.064Z,6.87
2018-03-28T17:33:44.633Z,6.79
2018-03-28T17:36:12.283Z,6.68
2018-03-28T17:38:39.862Z,6.63
2018-03-28T17:41:07.436Z,6.58
2018-03-28T17:43:35.042Z,6.50
2018-03-28T17:46:02.671Z,6.44
2018-03-28T17:48:30.373Z,6.43
2018-03-28T17:50:57.936Z,6.38
2018-03-28T17:53:25.509Z,6.29
2018-03-28T17:55:53.094Z,6.21
2018-03-28T17:58:20.682Z,6.07
2018-03-28T18:00:48.259Z,5.94
2018-03-28T18:03:15.821Z,5.87
2018-03-28T18:05:43.455Z,5.78
2018-03-28T18:08:11.108Z,5.69
2018-03-28T18:10:38.934Z,5.61
2018-03-28T18:13:06.510Z,5.55
2018-03-28T18:15:34.081Z,5.47
2018-03-28T18:18:01.726Z,5.43
2018-03-28T18:20:30.237Z,5.40
2018-03-28T18:22:58.716Z,5.36
2018-03-28T18:25:26.346Z,5.33
2018-03-28T18:27:53.922Z,5.28
2018-03-28T18:30:21.503Z,5.21
2018-03-28T18:32:49.998Z,5.21
2018-03-28T18:35:17.592Z,5.17
2018-03-28T18:37:45.197Z,5.10
2018-03-28T18:40:12.822Z,5.10
2018-03-28T18:42:40.450Z,5.04
2018-03-28T18:45:08.118Z,4.98
2018-03-28T18:47:35.704Z,4.98
2018-03-28T18:50:03.287Z,4.96
2018-03-28T18:52:30.962Z,4.94
2018-03-28T18:54:58.586Z,4.95
2018-03-28T18:57:26.221Z,4.92
2018-03-28T18:59:53.837Z,4.86
2018-03-28T19:02:21.406Z,4.78
2018-03-28T19:04:48.987Z,4.73
2018-03-28T19:07:16.614Z,4.69
2018-03-28T19:09:44.187Z,4.61
2018-03-28T19:12:11.783Z,4.54
2018-03-28T19:14:39.362Z,4.52
2018-03-28T19:17:06.938Z,4.52
2018-03-28T19:19:34.507Z,4.52
2018-03-28T19:22:02.186Z,4.53
2018-03-28T19:24:29.750Z,4.55
2018-03-28T19:26:57.321Z,4.53
2018-03-28T19:29:24.895Z,4.51
2018-03-28T19:31:52.523Z,4.50
2018-03-28T19:34:20.095Z,4.45
2018-03-28T19:36:47.665Z,4.39
2018-03-28T19:39:15.430Z,4.32
2018-03-28T19:41:43.050Z,4.32
2018-03-28T19:44:10.614Z,4.28
2018-03-28T19:46:38.259Z,4.29
2018-03-28T19:49:05.823Z,4.29
2018-03-28T19:51:33.408Z,4.30
2018-03-28T19:54:00.975Z,4.27
2018-03-28T19:56:28.663Z,4.22
2018-03-28T19:58:56.291Z,4.21
2018-03-28T20:01:23.914Z,4.21
2018-03-28T20:03:51.503Z,4.17
2018-03-28T20:06:19.134Z,4.16
2018-03-28T20:08:46.709Z,4.13
2018-03-28T20:11:14.278Z,4.07
2018-03-28T20:13:41.906Z,4.07
2018-03-28T20:16:09.533Z,4.02
2018-03-28T20:18:37.098Z,4.02
2018-03-28T20:21:04.680Z,4.00
2018-03-28T20:23:32.307Z,3.99
2018-03-28T20:25:59.934Z,3.98
2018-03-28T20:28:27.508Z,3.98
2018-03-28T20:30:55.139Z,3.98
2018-03-28T20:33:22.780Z,3.95
2018-03-28T20:35:50.506Z,3.89
2018-03-28T20:38:18.119Z,3.85
2018-03-28T20:40:45.741Z,3.79
2018-03-28T20:43:13.310Z,3.79
2018-03-28T20:45:40.904Z,3.81
2018-03-28T20:48:08.523Z,3.81
2018-03-28T20:50:36.210Z,3.86
2018-03-28T20:53:03.772Z,3.89
2018-03-28T20:55:31.346Z,3.81
2018-03-28T20:57:58.983Z,3.71
2018-03-28T21:00:26.556Z,3.67
2018-03-28T21:02:54.130Z,3.55
2018-03-28T21:05:21.693Z,3.50
2018-03-28T21:07:49.421Z,3.46
2018-03-28T21:10:16.984Z,3.44
2018-03-28T21:12:44.606Z,3.41
2018-03-28T21:15:12.180Z,3.38
2018-03-28T21:17:39.749Z,3.32
2018-03-28T21:20:07.386Z,3.24
2018-03-28T21:22:34.947Z,3.16
2018-03-28T21:25:02.570Z,3.17
2018-03-28T21:27:30.130Z,3.16
2018-03-28T21:29:57.746Z,3.17
2018-03-28T21:32:25.358Z,3.16
2018-03-28T21:34:52.978Z,3.15
2018-03-28T21:37:20.546Z,3.24
2018-03-28T21:39:48.105Z,3.29
2018-03-28T21:42:15.794Z,3.44
2018-03-28T21:44:44.256Z,3.64
2018-03-28T21:47:11.882Z,3.72
2018-03-28T21:49:39.450Z,3.71
2018-03-28T21:52:07.070Z,3.71
2018-03-28T21:54:34.695Z,3.72
2018-03-28T21:57:02.256Z,3.70
2018-03-28T21:59:29.888Z,3.82
2018-03-28T22:01:57.450Z,3.87
2018-03-28T22:04:25.020Z,3.86
2018-03-28T22:06:52.664Z,3.83
2018-03-28T22:09:20.288Z,3.78
2018-03-28T22:11:47.919Z,3.71
2018-03-28T22:14:15.558Z,3.61
2018-03-28T22:16:43.197Z,3.55
2018-03-28T22:19:10.764Z,3.52
2018-03-28T22:21:38.325Z,3.51
2018-03-28T22:24:05.961Z,3.46
2018-03-28T22:26:34.429Z,3.34
2018-03-28T22:29:01.998Z,3.25
2018-03-28T22:31:29.558Z,3.20
2018-03-28T22:33:57.231Z,3.16
2018-03-28T22:36:24.857Z,3.16
2018-03-28T22:38:52.478Z,3.16
2018-03-28T22:41:20.121Z,3.13
2018-03-28T22:43:47.754Z,3.13
2018-03-28T22:46:15.392Z,3.16
2018-03-28T22:48:43.014Z,3.20
2018-03-28T22:51:10.638Z,3.20
2018-03-28T22:53:38.254Z,3.14
2018-03-28T22:56:05.829Z,3.12
2018-03-28T22:58:33.402Z,3.08
2018-03-28T23:01:00.977Z,2.98
2018-03-28T23:03:28.609Z,2.91
2018-03-28T23:05:56.174Z,2.93
2018-03-28T23:08:23.790Z,2.93
2018-03-28T23:10:51.421Z,2.94
2018-03-28T23:13:18.982Z,2.91
2018-03-28T23:15:46.619Z,2.90
2018-03-28T23:18:14.177Z,2.83
2018-03-28T23:20:41.814Z,2.72
2018-03-28T23:23:09.378Z,2.70
2018-03-28T23:25:37.054Z,2.67
2018-03-28T23:28:04.614Z,2.63
2018-03-28T23:30:32.246Z,2.58
2018-03-28T23:32:59.837Z,2.53
2018-03-28T23:35:27.398Z,2.51
2018-03-28T23:37:55.035Z,2.50
2018-03-28T23:40:22.601Z,2.50
2018-03-28T23:42:50.226Z,2.50
2018-03-28T23:45:17.791Z,2.53
2018-03-28T23:47:45.414Z,2.51
2018-03-28T23:50:12.982Z,2.44
2018-03-28T23:52:40.548Z,2.36
2018-03-28T23:55:08.122Z,2.32
2018-03-28T23:57:35.682Z,2.31
